LJPZ/POW METAR and TAF weather

Enter ICAO airport designator
Station Type Date Time Source
LJPZ METAR 2020/06/03 23:00 UTC NOAA

LJPZ 032300Z AUTO 13005KT 9999 NSC 18/13 Q1005


Station Type Date Time Source
LJPZ Decoded METAR 2020/06/03 23:00 UTC NOAA

Portoroz, Slovenia (LJPZ) 45-31N 013-34E
Jun 03, 2020 - 07:00 PM EDT / 2020.06.03 2300 UTC
Wind: from the SE (130 degrees) at 6 MPH (5 KT):0
Visibility: greater than 7 mile(s):0
Temperature: 64 F (18 C)
Dew Point: 55 F (13 C)
Relative Humidity: 72%
Pressure (altimeter): 29.68 in. Hg (1005 hPa)
ob: LJPZ 032300Z AUTO 13005KT 9999 NSC 18/13 Q1005
cycle: 23

Station Type Date Time Source
LJPZ TAF 2008/06/02 05:30 UTC NOAA

TAF TAF LJPZ 020530Z 021615 VRB02KT 6000 NSC
BECMG 0911 30005KT 9999 FEW040

Example: see airport list